EW6366 Weather Reports


Display with metric or nautical units.
time (UTC)temp
F
wind
direction
speed
MPH
gust
MPH
rain 1hr
in
rain 24hr
in
rain mn
in
humidity
%
barometer
mb
20260508053016 50 360 0.0 0.0 0.00 0.04 0.02 56 1009.7
20260508051513 51 360 0.0 1.0 0.00 0.04 0.02 58 1009.7
20260508050013 50 360 0.0 0.0 0.00 0.04 0.02 58 1009.7
20260508044513 50 360 0.0 0.0 0.00 0.06 0.02 59 1009.7
20260508043013 51 360 0.0 0.0 0.00 0.06 0.02 62 1009.7
20260508041514 51 360 0.0 0.0 0.00 0.06 0.02 60 1009.6
20260508040012 51 360 0.0 0.0 0.00 0.06 0.02 58 1009.6
20260508034511 51 360 0.0 0.0 0.00 0.06 0.02 60 1009.5
20260508033014 50 360 0.0 0.0 0.00 0.06 0.02 60 1009.3
20260508031513 51 360 0.0 0.0 0.00 0.06 0.02 62 1009.2
20260508030010 52 360 0.0 1.0 0.00 0.06 0.02 64 1008.8
20260508024510 53 360 0.0 0.0 0.00 0.06 0.02 64 1008.8
20260508023009 54 360 0.0 0.0 0.00 0.06 0.02 62 1008.7
20260508021510 54 360 0.0 0.0 0.00 0.06 0.02 58 1008.5
20260508020008 54 360 0.0 0.0 0.00 0.06 0.02 57 1008.3
20260508014508 54 360 0.0 1.0 0.00 0.06 0.02 57 1008.1
20260508013007 55 360 0.0 0.0 0.00 0.06 0.02 57 1008.0
20260508011507 56 360 0.0 1.0 0.00 0.06 0.02 55 1008.0
20260508010016 56 360 0.0 3.0 0.00 0.06 0.02 57 1007.9
20260508004514 60 360 2.0 13.0 0.00 0.06 0.02 49 1007.7
20260508003007 59 360 0.0 0.0 0.00 0.06 0.02 48 1007.4
20260508001506 61 360 0.0 0.0 0.00 0.06 0.02 47 1007.2
20260508000004 62 360 0.0 0.0 0.00 0.06 0.02 40 1007.0
20260507234504 62 360 0.0 0.0 0.00 0.06 0.02 41 1006.9
20260507233003 62 360 0.0 4.0 0.00 0.06 0.02 42 1006.8
20260507231503 62 360 0.0 2.0 0.00 0.06 0.02 43 1006.7
20260507230001 61 360 0.0 1.0 0.00 0.06 0.02 44 1006.7
20260507224604 62 360 0.0 2.0 0.00 0.06 0.02 43 1006.7
20260507224503 62 360 0.0 2.0 0.00 0.06 0.02 47 1006.8
20260507223100 61 360 0.0 1.0 0.00 0.06 0.02 47 1006.8
20260507221559 62 360 0.0 6.0 0.00 0.06 0.02 45 1006.9
20260507220056 62 360 0.0 1.0 0.00 0.06 0.02 43 1007.0
20260507214555 61 360 0.0 0.0 0.00 0.06 0.02 44 1007.0
20260507213054 61 360 0.0 4.0 0.00 0.06 0.02 44 1007.1
20260507211555 60 54 0.0 8.0 0.00 0.06 0.02 45 1007.2
20260507210056 62 360 0.0 10.0 0.00 0.06 0.02 41 1007.4
20260507204550 62 351 0.0 3.0 0.00 0.06 0.02 42 1007.3
20260507203048 61 360 0.0 1.0 0.00 0.06 0.02 42 1007.3
20260507201547 60 360 0.0 1.0 0.00 0.06 0.02 43 1007.3
20260507200046 60 360 0.0 0.0 0.00 0.06 0.02 40 1007.3
20260507194548 60 360 0.0 0.0 0.00 0.06 0.02 44 1007.4
20260507193044 60 360 0.0 0.0 0.00 0.06 0.02 48 1007.5
20260507191541 61 360 0.0 4.0 0.00 0.06 0.02 47 1007.7
20260507190039 61 360 0.0 13.0 0.00 0.06 0.02 47 1007.8
20260507184537 59 360 0.0 3.0 0.00 0.06 0.02 51 1008.1
20260507183045 60 360 0.0 2.0 0.00 0.06 0.02 51 1008.2
20260507181539 59 360 0.0 11.0 0.00 0.06 0.02 53 1008.2
20260507180034 60 360 0.0 9.0 0.00 0.06 0.02 42 1008.3
20260507174530 59 360 0.0 12.0 0.00 0.06 0.02 43 1008.2
20260507173029 59 360 3.0 12.0 0.00 0.06 0.02 43 1008.4
20260507171529 59 360 1.0 11.0 0.00 0.06 0.02 45 1008.4
20260507170026 59 360 1.0 15.0 0.00 0.06 0.02 45 1008.4
20260507164529 59 360 0.0 12.0 0.00 0.06 0.02 46 1008.4
20260507163025 59 360 1.0 17.0 0.00 0.06 0.02 49 1008.6
20260507161535 58 360 0.0 1.0 0.00 0.06 0.02 51 1008.7
20260507160036 57 360 0.0 1.0 0.00 0.06 0.02 56 1008.8
20260507154518 57 360 0.0 1.0 0.00 0.06 0.02 56 1009.0
20260507153017 56 360 0.0 0.0 0.00 0.06 0.02 57 1009.1
20260507151516 55 360 0.0 0.0 0.00 0.06 0.02 61 1009.2
20260507150020 54 360 0.0 0.0 0.00 0.06 0.02 64 1009.3
20260507144526 53 360 0.0 1.0 0.00 0.06 0.02 64 1009.3
20260507143015 53 360 0.0 1.0 0.00 0.06 0.02 64 1009.3
20260507141613 52 360 0.0 0.0 0.00 0.06 0.02 67 1009.3
20260507140011 51 360 0.0 0.0 0.00 0.06 0.02 67 1009.1
20260507134511 52 360 0.0 1.0 0.00 0.06 0.02 71 1009.3
20260507133012 50 360 0.0 0.0 0.00 0.06 0.02 67 1009.3
20260507131508 48 360 0.0 0.0 0.00 0.06 0.02 73 1009.4
20260507130021 46 360 0.0 0.0 0.00 0.06 0.02 72 1009.7
20260507124506 47 360 0.0 0.0 0.00 0.06 0.02 70 1010.0
20260507123005 48 360 0.0 0.0 0.00 0.06 0.02 68 1010.0
20260507121504 49 360 0.0 0.0 0.00 0.06 0.02 67 1009.9
20260507120004 51 360 0.0 14.0 0.00 0.06 0.02 61 1010.1
20260507114505 52 360 0.0 0.0 0.00 0.06 0.02 59 1009.7
20260507113006 51 360 0.0 0.0 0.00 0.06 0.02 59 1009.5
20260507111503 52 360 0.0 0.0 0.00 0.06 0.02 59 1009.5
20260507110101 52 360 4.0 18.0 0.00 0.06 0.02 60 1009.7
20260507104600 51 360 0.0 1.0 0.00 0.06 0.02 60 1009.7
20260507103058 50 360 0.0 2.0 0.00 0.06 0.02 61 1009.7
20260507101559 49 360 0.0 1.0 0.00 0.06 0.02 63 1009.8
20260507100058 49 360 0.0 0.0 0.00 0.06 0.02 65 1009.8
20260507094555 48 360 0.0 0.0 0.00 0.06 0.02 66 1009.8
20260507093055 48 360 0.0 0.0 0.00 0.06 0.02 68 1009.8
20260507091554 48 360 0.0 0.0 0.01 0.06 0.02 72 1010.0
20260507090052 48 360 0.0 0.0 0.02 0.06 0.02 71 1010.0
20260507084552 48 360 0.0 0.0 0.02 0.06 0.02 74 1010.0
20260507083049 48 360 0.0 0.0 0.02 0.06 0.02 74 1010.0
20260507081546 49 360 0.0 0.0 0.01 0.05 0.01 73 1010.4
20260507080043 50 360 0.0 0.0 0.00 0.04 0.00 67 1010.4
20260507074549 50 360 0.0 0.0 0.00 0.04 0.00 69 1010.7
20260507073043 52 360 0.0 1.0 0.00 0.04 0.00 62 1010.4
20260507071538 56 360 0.0 1.0 0.00 0.04 0.00 49 1010.0
20260507070036 56 360 13.0 26.0 0.00 0.04 0.00 44 1010.4
20260507064533 56 360 0.0 18.0 0.00 0.04 0.00 46 1010.0
20260507063040 53 360 0.0 15.0 0.00 0.04 0.00 54 1010.1
20260507061530 53 360 0.0 5.0 0.00 0.04 0.00 58 1010.6
20260507060036 52 360 0.0 13.0 0.01 0.04 0.00 56 1011.5
20260507054521 52 360 0.0 6.0 0.04 0.04 0.04 61 1011.2